Time;durP1;ratioP1;P1;durP2;ratioP2;P2;SDS_P1;SDS_P2;PMS_P1;PMS_P2;Temp;Humidity;BMP_temperature;BMP_pressure;BME280_temperature;BME280_humidity;BME280_pressure;Samples;Min_cycle;Max_cycle;Signal;HPM_P1;HPM_P2
2023/05/07 00:02:15;;;;;;;4.30;1.80;;;;;;;15.76;44.61;101994.44;110528;1270;22214;-47
2023/05/07 00:04:42;;;;;;;2.40;1.60;;;;;;;15.75;44.70;101992.70;110432;1268;22258;-47
2023/05/07 00:07:09;;;;;;;4.20;1.80;;;;;;;15.73;44.66;101988.76;110432;1268;22494;-47
2023/05/07 00:09:36;;;;;;;4.10;2.00;;;;;;;15.71;44.52;101990.17;110484;1274;23134;-47
2023/05/07 00:12:03;;;;;;;2.80;1.90;;;;;;;15.66;44.03;101987.83;110172;1273;22388;-47
2023/05/07 00:14:30;;;;;;;6.00;1.70;;;;;;;15.58;44.09;101986.46;110455;1274;22159;-48
2023/05/07 00:16:58;;;;;;;3.20;1.50;;;;;;;15.54;44.45;101986.55;110302;1272;22158;-48
2023/05/07 00:19:25;;;;;;;5.20;3.30;;;;;;;15.52;44.51;101984.69;110250;1273;22133;-47
2023/05/07 00:21:53;;;;;;;4.50;2.00;;;;;;;15.50;44.58;101984.04;110464;1268;22280;-48
2023/05/07 00:24:20;;;;;;;4.70;2.30;;;;;;;15.48;44.42;101984.58;110494;1270;22159;-47
2023/05/07 00:26:48;;;;;;;5.00;2.00;;;;;;;15.53;44.41;101986.23;110201;1274;23133;-48
2023/05/07 00:29:14;;;;;;;3.30;1.70;;;;;;;15.53;44.59;101987.79;110352;1275;22134;-48
2023/05/07 00:31:41;;;;;;;5.80;2.10;;;;;;;15.51;44.68;101980.85;110382;1274;22281;-47
2023/05/07 00:34:09;;;;;;;4.10;2.00;;;;;;;15.49;44.43;101982.48;110331;1271;22336;-48
2023/05/07 00:36:36;;;;;;;9.10;2.60;;;;;;;15.47;44.84;101982.00;110355;1272;22232;-47
2023/05/07 00:39:03;;;;;;;5.30;2.00;;;;;;;15.46;45.00;101978.88;110311;1272;22138;-48
2023/05/07 00:41:30;;;;;;;5.60;2.10;;;;;;;15.45;45.21;101977.14;110302;1277;22426;-47
2023/05/07 00:43:58;;;;;;;4.20;1.90;;;;;;;15.45;45.49;101974.53;110330;1272;22499;-48
2023/05/07 00:46:25;;;;;;;4.90;2.40;;;;;;;15.43;45.73;101973.86;110254;1269;22344;-48
2023/05/07 00:48:53;;;;;;;2.90;2.20;;;;;;;15.41;45.71;101970.90;110289;1277;22195;-48
2023/05/07 00:51:20;;;;;;;6.40;2.30;;;;;;;15.40;45.85;101974.94;110462;1270;22162;-47
2023/05/07 00:53:47;;;;;;;5.70;2.20;;;;;;;15.39;45.78;101974.45;109308;1277;1002126;-48
2023/05/07 00:56:14;;;;;;;8.90;2.70;;;;;;;15.36;45.72;101974.68;110394;1270;22159;-47
2023/05/07 00:58:41;;;;;;;4.40;2.30;;;;;;;15.35;45.76;101975.06;110475;1269;22391;-48
2023/05/07 01:01:08;;;;;;;3.50;2.00;;;;;;;15.32;45.70;101975.30;110091;1278;22294;-47
2023/05/07 01:03:35;;;;;;;7.70;2.80;;;;;;;15.29;45.81;101978.52;110094;1277;22151;-47
2023/05/07 01:06:03;;;;;;;3.30;2.20;;;;;;;15.26;45.97;101977.89;110481;1270;22127;-48
2023/05/07 01:08:31;;;;;;;6.80;2.30;;;;;;;15.26;45.95;101981.39;110452;1270;22276;-47
2023/05/07 01:10:58;;;;;;;4.00;2.50;;;;;;;15.18;46.35;101980.14;110524;1268;22384;-47
2023/05/07 01:13:25;;;;;;;3.70;2.60;;;;;;;15.15;46.56;101979.17;110218;1271;22177;-48
2023/05/07 01:15:52;;;;;;;5.10;2.80;;;;;;;15.12;46.69;101979.92;110350;1271;22328;-47
2023/05/07 01:18:19;;;;;;;5.20;2.70;;;;;;;15.09;46.95;101989.08;110149;1273;22374;-48
2023/05/07 01:20:47;;;;;;;2.70;2.20;;;;;;;15.09;47.03;101987.86;110221;1274;22468;-48
2023/05/07 01:23:14;;;;;;;3.30;2.30;;;;;;;15.06;47.19;101985.99;110292;1275;23111;-47
2023/05/07 01:25:41;;;;;;;3.10;2.40;;;;;;;15.04;47.34;101983.60;110092;1269;22369;-47
2023/05/07 01:28:08;;;;;;;4.20;2.40;;;;;;;15.00;47.46;101980.36;110343;1267;22856;-48
2023/05/07 01:30:36;;;;;;;4.50;2.80;;;;;;;15.02;47.59;101978.57;110396;1270;22353;-48
2023/05/07 01:33:09;;;;;;;6.50;2.60;;;;;;;15.04;47.58;101979.77;110372;1267;22142;-48
2023/05/07 01:35:42;;;;;;;3.70;2.30;;;;;;;15.03;47.67;101979.94;110369;1267;22333;-48
2023/05/07 01:38:09;;;;;;;2.80;2.30;;;;;;;15.01;47.66;101981.02;110467;1268;22788;-48
2023/05/07 01:40:37;;;;;;;7.20;2.10;;;;;;;14.99;47.83;101977.23;110223;1267;22361;-48
2023/05/07 01:43:04;;;;;;;5.40;2.30;;;;;;;14.98;47.97;101973.93;110527;1267;22891;-48
2023/05/07 01:45:32;;;;;;;3.70;2.10;;;;;;;14.97;48.05;101973.43;110297;1275;22158;-48
2023/05/07 01:47:59;;;;;;;4.70;2.50;;;;;;;14.96;48.27;101972.25;110206;1271;22133;-48
2023/05/07 01:50:26;;;;;;;4.50;2.40;;;;;;;14.94;48.30;101969.31;110174;1274;22267;-47
2023/05/07 01:52:53;;;;;;;8.10;4.90;;;;;;;14.93;48.43;101970.39;109563;1271;1002335;-48
2023/05/07 01:55:20;;;;;;;6.10;2.90;;;;;;;14.90;48.28;101968.86;110380;1274;22455;-48
2023/05/07 01:57:47;;;;;;;5.90;2.90;;;;;;;14.88;48.32;101967.17;110463;1273;22312;-48
2023/05/07 02:00:15;;;;;;;4.00;2.20;;;;;;;14.85;48.53;101966.17;109368;1273;1002917;-48
2023/05/07 02:02:42;;;;;;;5.50;2.70;;;;;;;14.84;48.67;101972.15;110419;1268;22955;-48
2023/05/07 02:05:15;;;;;;;4.30;2.70;;;;;;;14.84;48.64;101969.70;110405;1270;23122;-48
2023/05/07 02:07:45;;;;;;;4.20;2.70;;;;;;;14.82;48.67;101970.77;110360;1274;22399;-48
2023/05/07 02:10:13;;;;;;;4.30;2.60;;;;;;;14.81;48.80;101967.13;109984;1277;22129;-48
2023/05/07 02:12:40;;;;;;;4.30;2.80;;;;;;;14.80;48.89;101968.35;110181;1271;22170;-48
2023/05/07 02:15:07;;;;;;;5.70;2.60;;;;;;;14.79;48.89;101971.54;110101;1272;22446;-48
2023/05/07 02:17:35;;;;;;;6.40;2.70;;;;;;;14.77;49.09;101967.02;110060;1278;22315;-48
2023/05/07 02:20:03;;;;;;;6.10;2.70;;;;;;;14.74;49.01;101965.34;109984;1278;22383;-48
2023/05/07 02:22:30;;;;;;;3.40;2.20;;;;;;;14.70;49.10;101961.05;110023;1274;22158;-48
2023/05/07 02:24:57;;;;;;;4.10;2.70;;;;;;;14.67;49.16;101959.71;109337;1276;1002356;-48
2023/05/07 02:27:24;;;;;;;4.30;2.90;;;;;;;14.65;49.24;101963.76;110015;1276;22288;-48
2023/05/07 02:29:51;;;;;;;4.70;3.00;;;;;;;14.63;49.44;101965.20;109339;1273;1002544;-47
2023/05/07 02:32:18;;;;;;;5.10;2.90;;;;;;;14.62;49.73;101968.71;110063;1270;22387;-48
2023/05/07 02:34:45;;;;;;;3.60;2.90;;;;;;;14.62;49.86;101962.77;110047;1274;22234;-48
2023/05/07 02:37:12;;;;;;;4.80;2.60;;;;;;;14.62;49.63;101966.43;110101;1278;22184;-48
2023/05/07 02:39:39;;;;;;;4.40;2.80;;;;;;;14.58;49.67;101970.20;109320;1273;1003048;-48
2023/05/07 02:42:06;;;;;;;3.90;2.80;;;;;;;14.55;49.78;101969.89;110383;1268;22384;-47
2023/05/07 02:44:35;;;;;;;4.10;3.10;;;;;;;14.53;49.92;101967.67;109655;1273;1006165;-48
2023/05/07 02:47:03;;;;;;;5.20;3.00;;;;;;;14.49;50.00;101970.36;110425;1270;22433;-48
2023/05/07 02:49:31;;;;;;;5.20;2.70;;;;;;;14.40;50.11;101966.70;110167;1273;22406;-48
2023/05/07 02:51:58;;;;;;;6.10;3.30;;;;;;;14.36;50.15;101971.83;110317;1266;23194;-48
2023/05/07 02:54:25;;;;;;;8.60;3.10;;;;;;;14.33;50.24;101965.07;110351;1267;22441;-48
2023/05/07 02:56:52;;;;;;;6.10;3.30;;;;;;;14.31;50.07;101970.34;109340;1267;1002585;-49
2023/05/07 02:59:19;;;;;;;6.70;3.00;;;;;;;14.27;50.08;101972.31;110591;1269;22727;-48
2023/05/07 03:01:46;;;;;;;3.80;2.90;;;;;;;14.21;50.06;101972.91;110310;1261;22122;-48
2023/05/07 03:04:15;;;;;;;6.20;2.70;;;;;;;14.16;50.15;101972.67;110397;1274;23131;-48
2023/05/07 03:06:42;;;;;;;4.10;2.90;;;;;;;14.15;50.06;101977.92;110359;1271;22111;-48
2023/05/07 03:09:09;;;;;;;5.00;3.30;;;;;;;14.10;50.22;101975.05;110102;1274;22296;-49
2023/05/07 03:11:36;;;;;;;5.20;3.10;;;;;;;14.07;50.22;101977.54;110303;1274;22363;-48
2023/05/07 03:14:03;;;;;;;4.40;2.80;;;;;;;14.03;50.31;101980.75;110449;1273;22394;-48
2023/05/07 03:16:31;;;;;;;4.70;3.00;;;;;;;14.00;50.29;101986.91;110487;1275;22129;-48
2023/05/07 03:18:58;;;;;;;3.90;3.00;;;;;;;13.98;50.39;101990.25;110448;1268;22288;-48
2023/05/07 03:21:26;;;;;;;4.70;3.00;;;;;;;13.95;50.55;101993.96;110114;1274;22400;-48
2023/05/07 03:23:53;;;;;;;4.10;2.30;;;;;;;13.92;50.63;101991.04;110390;1275;22174;-48
2023/05/07 03:26:21;;;;;;;6.30;2.90;;;;;;;13.89;50.73;101992.66;109675;1274;1002636;-48
2023/05/07 03:28:48;;;;;;;3.30;2.80;;;;;;;13.79;51.02;101998.57;110460;1273;22286;-48
2023/05/07 03:31:15;;;;;;;3.50;2.70;;;;;;;13.68;51.55;102002.22;110553;1270;22132;-48
2023/05/07 03:33:53;;;;;;;6.30;3.10;;;;;;;13.85;51.34;102004.58;109617;1270;1002812;-48
2023/05/07 03:36:20;;;;;;;8.00;4.10;;;;;;;13.92;51.44;102003.08;110235;1277;23159;-48
2023/05/07 03:38:47;;;;;;;8.10;3.50;;;;;;;14.00;51.67;102004.70;110308;1277;23155;-48
2023/05/07 03:41:17;;;;;;;5.80;2.80;;;;;;;14.13;51.73;102009.02;110022;1274;22177;-49
2023/05/07 03:43:44;;;;;;;4.80;2.80;;;;;;;14.27;51.61;102014.91;110005;1275;22153;-48
2023/05/07 03:46:11;;;;;;;5.70;2.90;;;;;;;14.40;51.63;102018.73;109955;1281;22349;-48
2023/05/07 03:48:38;;;;;;;6.10;3.00;;;;;;;14.47;51.40;102019.48;109978;1278;22318;-48
2023/05/07 03:51:06;;;;;;;3.50;3.00;;;;;;;14.49;51.55;102024.48;109908;1273;22525;-48
2023/05/07 03:53:33;;;;;;;6.10;3.10;;;;;;;14.51;51.55;102020.60;109974;1275;22181;-50
2023/05/07 03:56:00;;;;;;;7.40;3.60;;;;;;;14.53;51.56;102025.45;109961;1276;22182;-48
2023/05/07 03:58:28;;;;;;;6.90;3.70;;;;;;;14.55;51.55;102018.42;109948;1280;22182;-48
2023/05/07 04:00:56;;;;;;;5.90;3.80;;;;;;;14.56;51.53;102017.20;109858;1280;22154;-48
2023/05/07 04:03:25;;;;;;;6.00;4.50;;;;;;;14.57;51.51;102020.86;109978;1275;22237;-48
2023/05/07 04:05:53;;;;;;;3.10;2.80;;;;;;;14.56;51.51;102022.44;109798;1278;22165;-48
2023/05/07 04:08:20;;;;;;;5.00;3.40;;;;;;;14.56;51.64;102021.56;110017;1273;23041;-46
2023/05/07 04:10:54;;;;;;;5.00;3.30;;;;;;;14.56;51.72;102024.02;110126;1278;22223;-48
2023/05/07 04:13:22;;;;;;;3.80;2.90;;;;;;;14.55;51.71;102025.94;110260;1270;22616;-48
2023/05/07 04:15:51;;;;;;;5.90;3.50;;;;;;;14.56;51.86;102029.42;110319;1268;22126;-48
2023/05/07 04:18:18;;;;;;;2.90;2.60;;;;;;;14.62;51.55;102030.89;110096;1273;22346;-49
2023/05/07 04:20:46;;;;;;;6.70;3.40;;;;;;;14.67;51.49;102028.36;110200;1269;23290;-48
2023/05/07 04:23:14;;;;;;;5.40;2.80;;;;;;;14.67;51.38;102030.77;110258;1277;22344;-48
2023/05/07 04:25:41;;;;;;;4.40;3.10;;;;;;;14.69;51.30;102030.23;110160;1272;22138;-48
2023/05/07 04:28:18;;;;;;;5.30;3.10;;;;;;;14.69;51.18;102033.89;110139;1277;22322;-48
2023/05/07 04:30:46;;;;;;;5.10;3.40;;;;;;;14.69;51.18;102040.89;110014;1275;22356;-48
2023/05/07 04:33:14;;;;;;;5.30;3.00;;;;;;;14.68;51.31;102040.56;110131;1270;23119;-48
2023/05/07 04:35:42;;;;;;;2.90;2.50;;;;;;;14.67;51.22;102045.62;110274;1272;22912;-48
2023/05/07 04:38:09;;;;;;;4.30;3.20;;;;;;;14.68;51.25;102047.18;109491;1273;1002922;-48
2023/05/07 04:40:36;;;;;;;4.00;3.20;;;;;;;14.68;51.10;102051.04;110033;1278;22153;-48
2023/05/07 04:43:04;;;;;;;4.70;3.00;;;;;;;14.68;51.02;102052.09;110174;1269;22413;-48
2023/05/07 04:45:33;;;;;;;4.00;3.30;;;;;;;14.67;51.06;102053.67;110254;1272;23062;-48
2023/05/07 04:48:00;;;;;;;6.50;3.30;;;;;;;14.67;51.09;102051.05;110289;1271;22970;-48
2023/05/07 04:50:28;;;;;;;7.40;3.20;;;;;;;14.68;51.10;102054.88;110008;1275;22227;-48
2023/05/07 04:52:57;;;;;;;5.20;3.50;;;;;;;14.70;50.89;102048.91;109657;1275;1003066;-48
2023/05/07 04:55:24;;;;;;;6.60;3.20;;;;;;;14.72;51.17;102042.59;110322;1276;22929;-48
2023/05/07 04:57:51;;;;;;;7.10;3.30;;;;;;;14.76;51.27;102046.35;110428;1275;22146;-49
2023/05/07 05:00:19;;;;;;;4.20;3.30;;;;;;;14.81;51.01;102042.08;110207;1272;22576;-48
2023/05/07 05:02:47;;;;;;;6.10;3.20;;;;;;;14.82;50.58;102042.23;110325;1271;22827;-48
2023/05/07 05:05:16;;;;;;;5.60;3.10;;;;;;;14.84;50.55;102045.34;110360;1274;22354;-48
2023/05/07 05:07:44;;;;;;;6.40;3.50;;;;;;;14.86;50.34;102037.79;110395;1268;22554;-48
2023/05/07 05:10:11;;;;;;;5.60;3.30;;;;;;;14.83;50.45;102037.14;110545;1268;22602;-48
2023/05/07 05:12:39;;;;;;;6.80;3.80;;;;;;;14.83;50.32;102032.25;110388;1274;23061;-48
2023/05/07 05:15:07;;;;;;;5.10;3.40;;;;;;;14.82;50.44;102023.90;110389;1271;22148;-48
2023/05/07 05:17:35;;;;;;;4.70;3.10;;;;;;;14.83;50.45;102023.88;110469;1267;22140;-48
2023/05/07 05:20:03;;;;;;;4.50;3.10;;;;;;;14.84;50.47;102022.63;110309;1267;22360;-48
2023/05/07 05:22:31;;;;;;;5.10;3.20;;;;;;;14.87;50.60;102024.48;110581;1267;22328;-48
2023/05/07 05:24:58;;;;;;;4.70;3.40;;;;;;;14.93;50.78;102028.39;110035;1268;23116;-48
2023/05/07 05:27:26;;;;;;;7.40;2.90;;;;;;;15.07;50.63;102025.29;110135;1274;22901;-48
2023/05/07 05:29:53;;;;;;;6.60;3.20;;;;;;;15.34;50.34;102029.64;110340;1271;22476;-48
2023/05/07 05:32:20;;;;;;;3.60;2.90;;;;;;;15.70;49.37;102028.69;110422;1272;22375;-48
2023/05/07 05:34:48;;;;;;;3.80;3.10;;;;;;;16.05;48.58;102026.30;110379;1270;22457;-49
2023/05/07 05:37:15;;;;;;;3.80;3.50;;;;;;;16.38;47.72;102027.91;110487;1268;22286;-48
2023/05/07 05:39:44;;;;;;;6.90;3.00;;;;;;;16.72;47.06;102024.77;109376;1275;1002412;-49
2023/05/07 05:42:11;;;;;;;6.40;3.00;;;;;;;17.07;46.42;102025.71;109718;1270;1002985;-49
2023/05/07 05:44:38;;;;;;;3.20;2.80;;;;;;;17.46;45.48;102027.02;110370;1274;22349;-48
2023/05/07 05:47:05;;;;;;;7.60;3.40;;;;;;;17.85;44.81;102024.94;110362;1274;22875;-46
2023/05/07 05:49:32;;;;;;;4.20;3.00;;;;;;;18.27;43.58;102024.62;110408;1267;23180;-48
2023/05/07 05:51:59;;;;;;;4.60;3.10;;;;;;;18.60;42.81;102023.88;110369;1274;22145;-48
2023/05/07 05:54:27;;;;;;;4.80;2.60;;;;;;;18.79;42.38;102022.64;110488;1268;22301;-48
2023/05/07 05:56:54;;;;;;;5.60;3.00;;;;;;;19.00;41.84;102023.48;110355;1267;22132;-47
2023/05/07 05:59:21;;;;;;;4.40;2.80;;;;;;;19.16;41.44;102022.69;110436;1268;22137;-48
2023/05/07 06:01:48;;;;;;;4.90;2.60;;;;;;;19.29;40.65;102024.65;110328;1271;22343;-49
2023/05/07 06:04:16;;;;;;;6.70;3.80;;;;;;;19.32;40.46;102023.14;110335;1270;22145;-47
2023/05/07 06:06:43;;;;;;;8.40;3.60;;;;;;;19.31;40.29;102025.45;110356;1275;23147;-47
2023/05/07 06:09:10;;;;;;;5.30;3.00;;;;;;;19.26;40.34;102023.17;110401;1271;22158;-46
2023/05/07 06:11:40;;;;;;;6.60;2.90;;;;;;;19.22;40.46;102019.67;110245;1272;23052;-48
2023/05/07 06:14:08;;;;;;;6.30;2.90;;;;;;;19.15;40.33;102023.63;110349;1274;22344;-49
2023/05/07 06:16:37;;;;;;;5.40;3.20;;;;;;;19.04;40.41;102023.48;110351;1270;22845;-49
2023/05/07 06:19:05;;;;;;;5.30;2.80;;;;;;;18.89;40.55;102024.91;110254;1276;22408;-46
2023/05/07 06:21:33;;;;;;;4.10;2.90;;;;;;;18.76;40.98;102032.45;110067;1271;22339;-46
2023/05/07 06:24:00;;;;;;;4.90;3.10;;;;;;;18.68;41.17;102030.05;110285;1271;22468;-46
2023/05/07 06:26:27;;;;;;;5.40;2.80;;;;;;;18.63;41.11;102027.27;110304;1277;22442;-48
2023/05/07 06:28:54;;;;;;;4.50;2.80;;;;;;;18.58;41.31;102032.91;110045;1277;22299;-47
2023/05/07 06:31:22;;;;;;;5.40;2.70;;;;;;;18.58;41.55;102035.70;110088;1273;22339;-48
2023/05/07 06:33:56;;;;;;;5.20;3.00;;;;;;;18.71;41.43;102042.97;110092;1273;22280;-46
2023/05/07 06:36:29;;;;;;;3.90;2.70;;;;;;;18.90;41.15;102048.09;110054;1273;22375;-47
2023/05/07 06:38:57;;;;;;;5.50;2.50;;;;;;;19.06;40.47;102055.08;110042;1278;22365;-46
2023/05/07 06:41:25;;;;;;;6.30;2.90;;;;;;;19.16;40.29;102055.42;110251;1272;22164;-47
2023/05/07 06:43:54;;;;;;;4.60;2.60;;;;;;;19.12;40.30;102059.77;109930;1279;22623;-46
2023/05/07 06:46:44;;;;;;;3.20;2.60;;;;;;;19.07;40.30;102060.67;109936;1279;22306;-50
2023/05/07 06:49:13;;;;;;;6.50;2.90;;;;;;;19.07;40.31;102060.48;110289;1272;23070;-47
2023/05/07 06:54:04;;;;;;;5.40;3.00;;;;;;;18.55;41.22;102062.70;105009;1289;558305;-47
2023/05/07 06:56:32;;;;;;;4.40;2.90;;;;;;;18.80;40.55;102060.42;106141;1286;25355;-47
2023/05/07 06:59:00;;;;;;;6.90;2.80;;;;;;;18.75;41.02;102060.77;106075;1287;22528;-47
2023/05/07 07:01:30;;;;;;;6.60;3.20;;;;;;;18.83;41.28;102055.74;105948;1285;25394;-48
2023/05/07 07:03:58;;;;;;;3.70;2.50;;;;;;;18.97;40.56;102061.58;106284;1282;25418;-48
2023/05/07 07:06:25;;;;;;;3.70;2.40;;;;;;;19.03;40.39;102063.80;106040;1283;406898;-48
2023/05/07 07:08:52;;;;;;;5.20;2.60;;;;;;;19.15;40.41;102063.71;106633;1278;22549;-48
2023/05/07 07:11:20;;;;;;;3.60;2.70;;;;;;;19.20;40.37;102066.68;106337;1280;25506;-48
2023/05/07 07:13:47;;;;;;;6.20;2.60;;;;;;;19.19;40.00;102061.28;106318;1271;23187;-48
2023/05/07 07:16:15;;;;;;;5.70;2.90;;;;;;;19.10;40.00;102055.61;106439;1283;22556;-47
2023/05/07 07:18:42;;;;;;;6.40;3.70;;;;;;;18.93;40.30;102055.73;106494;1279;25375;-48
2023/05/07 07:21:10;;;;;;;3.50;2.80;;;;;;;18.79;40.95;102051.31;106676;1278;23629;-48
2023/05/07 07:23:37;;;;;;;5.10;2.90;;;;;;;18.79;41.37;102055.02;106763;1280;25395;-48
2023/05/07 07:26:06;;;;;;;5.80;3.00;;;;;;;18.89;41.45;102056.59;106483;1276;25516;-48
2023/05/07 07:28:33;;;;;;;4.70;2.60;;;;;;;18.94;40.85;102059.54;106333;1279;25360;-47
2023/05/07 07:31:01;;;;;;;6.50;3.10;;;;;;;18.91;40.74;102060.21;106638;1279;25405;-47
2023/05/07 07:33:29;;;;;;;4.10;2.40;;;;;;;18.81;41.17;102065.67;106357;1279;25487;-47
2023/05/07 07:35:57;;;;;;;5.30;3.00;;;;;;;18.70;41.38;102067.27;106405;1279;23262;-47
2023/05/07 07:38:24;;;;;;;4.30;2.80;;;;;;;18.60;41.47;102069.73;105972;1286;25619;-47
2023/05/07 07:40:51;;;;;;;3.70;3.00;;;;;;;18.52;41.38;102071.58;107179;1274;24214;-47
2023/05/07 07:43:19;;;;;;;4.50;2.60;;;;;;;18.41;41.40;102069.66;107036;1274;25372;-47
2023/05/07 07:45:47;;;;;;;3.70;2.50;;;;;;;18.32;41.68;102071.88;107221;1259;23851;-47
2023/05/07 07:48:14;;;;;;;3.60;2.50;;;;;;;18.18;41.86;102069.89;107189;1269;25405;-46
2023/05/07 07:50:42;;;;;;;6.00;2.70;;;;;;;18.05;42.21;102071.19;107396;1267;25376;-49
2023/05/07 07:53:14;;;;;;;5.30;3.00;;;;;;;17.94;42.31;102072.59;106909;1267;24277;-47
2023/05/07 07:55:42;;;;;;;4.40;2.60;;;;;;;17.81;42.51;102069.28;107447;1267;25277;-48
2023/05/07 07:58:11;;;;;;;3.80;2.60;;;;;;;17.70;42.64;102070.69;107132;1270;22993;-47
2023/05/07 08:00:38;;;;;;;6.10;2.20;;;;;;;17.57;43.15;102068.98;107582;1267;25488;-49
2023/05/07 08:03:07;;;;;;;4.00;2.50;;;;;;;17.49;43.63;102068.17;107308;1269;25331;-49
2023/05/07 08:05:38;;;;;;;2.80;2.20;;;;;;;17.47;43.87;102065.58;107070;1268;25213;-48
2023/05/07 08:08:06;;;;;;;3.40;2.30;;;;;;;17.53;43.58;102064.39;107103;1263;22524;-48
2023/05/07 08:10:34;;;;;;;4.50;2.40;;;;;;;17.58;43.37;102061.06;107123;1267;23337;-48
2023/05/07 08:13:05;;;;;;;;;;;;;;;17.61;43.30;102058.34;106957;1274;22504;-48
2023/05/07 08:15:33;;;;;;;4.10;2.70;;;;;;;17.62;43.17;102060.58;107102;1273;25337;-49
2023/05/07 08:18:02;;;;;;;5.60;2.80;;;;;;;17.65;43.15;102062.09;107478;1266;25392;-48
2023/05/07 08:20:30;;;;;;;5.60;2.60;;;;;;;17.61;43.12;102062.72;107426;1261;24182;-47
2023/05/07 08:22:57;;;;;;;5.50;2.60;;;;;;;17.65;43.24;102063.85;107048;1270;25343;-47
2023/05/07 08:25:26;;;;;;;2.70;2.50;;;;;;;17.74;42.90;102053.04;107285;1266;22641;-47
2023/05/07 08:27:54;;;;;;;2.60;2.00;;;;;;;17.79;42.94;102054.08;107180;1262;25452;-48
2023/05/07 08:30:22;;;;;;;4.90;2.10;;;;;;;17.85;43.07;102054.41;106470;1273;25482;-47
2023/05/07 08:32:49;;;;;;;5.00;2.30;;;;;;;17.92;43.08;102055.29;106597;1273;25462;-47
2023/05/07 08:35:17;;;;;;;3.90;2.20;;;;;;;18.01;43.06;102052.20;106834;1276;22760;-47
2023/05/07 08:37:44;;;;;;;3.40;2.20;;;;;;;18.11;42.47;102051.16;106970;1270;25401;-47
2023/05/07 08:40:12;;;;;;;6.50;3.00;;;;;;;18.14;42.18;102054.20;106928;1269;26483;-47
2023/05/07 08:42:41;;;;;;;2.50;2.10;;;;;;;18.10;41.95;102052.61;107148;1270;25395;-47
2023/05/07 08:45:10;;;;;;;3.90;2.40;;;;;;;18.01;42.00;102049.18;106880;1270;25584;-46
2023/05/07 08:47:52;;;;;;;2.90;2.20;;;;;;;17.97;42.22;102047.22;106849;1263;25315;-47
2023/05/07 08:50:21;;;;;;;2.60;1.80;;;;;;;18.00;42.59;102042.03;106779;1263;22546;-49
2023/05/07 08:52:49;;;;;;;3.20;1.90;;;;;;;18.06;42.43;102042.88;106808;1274;23123;-49
2023/05/07 08:55:17;;;;;;;4.00;2.40;;;;;;;18.17;42.45;102048.33;107145;1270;25420;-48
2023/05/07 08:57:44;;;;;;;2.90;2.50;;;;;;;18.22;42.03;102048.85;106786;1271;24375;-48
2023/05/07 09:00:13;;;;;;;4.00;2.20;;;;;;;18.21;42.19;102046.77;107229;1268;26601;-47
2023/05/07 09:02:41;;;;;;;2.70;2.30;;;;;;;18.23;42.30;102043.20;107232;1263;26570;-47
2023/05/07 09:05:08;;;;;;;4.70;2.30;;;;;;;18.22;42.10;102041.13;107228;1254;25453;-47
2023/05/07 09:07:36;;;;;;;3.40;2.10;;;;;;;18.15;41.79;102037.31;106812;1253;24225;-47
2023/05/07 09:10:06;;;;;;;2.70;2.20;;;;;;;18.10;42.01;102036.27;106947;1267;22523;-47
2023/05/07 09:12:35;;;;;;;3.20;2.10;;;;;;;18.12;42.21;102036.36;106569;1274;22543;-48
2023/05/07 09:15:03;;;;;;;4.40;2.50;;;;;;;18.11;42.12;102032.02;107137;1261;22806;-47
2023/05/07 09:17:31;;;;;;;3.30;2.30;;;;;;;18.07;42.15;102032.50;107164;1264;25365;-47
2023/05/07 09:20:05;;;;;;;3.80;2.00;;;;;;;18.06;42.48;102032.70;107394;1259;22399;-47
2023/05/07 09:22:37;;;;;;;4.20;2.30;;;;;;;18.05;42.67;102030.64;106868;1271;22543;-48
2023/05/07 09:25:07;;;;;;;5.80;2.10;;;;;;;18.04;42.45;102040.15;107125;1261;24059;-48
2023/05/07 09:27:36;;;;;;;3.10;2.20;;;;;;;18.03;42.70;102034.22;106805;1267;25553;-47
2023/05/07 09:30:24;;;;;;;3.50;2.30;;;;;;;18.04;42.55;102035.92;107308;1261;22523;-47
2023/05/07 09:32:51;;;;;;;4.10;2.00;;;;;;;18.04;42.80;102038.58;106984;1270;25407;-48
2023/05/07 09:35:21;;;;;;;2.70;2.00;;;;;;;18.06;42.85;102036.40;107071;1270;24310;-48
2023/05/07 09:37:53;;;;;;;3.00;2.10;;;;;;;18.11;42.38;102033.08;106804;1267;28698;-47
2023/05/07 09:40:21;;;;;;;3.20;2.00;;;;;;;18.13;42.53;102037.22;106999;1264;25331;-47
2023/05/07 09:42:49;;;;;;;4.10;2.10;;;;;;;18.18;42.50;102037.92;106856;1270;25265;-47
2023/05/07 09:45:29;;;;;;;4.90;2.00;;;;;;;18.25;42.63;102041.02;106777;1267;22532;-47
2023/05/07 09:47:58;;;;;;;2.70;1.90;;;;;;;18.33;42.77;102039.86;106704;1270;25397;-47
2023/05/07 09:50:27;;;;;;;2.80;1.90;;;;;;;18.41;42.65;102038.38;107048;1263;24211;-47
2023/05/07 09:52:55;;;;;;;2.40;1.70;;;;;;;18.49;42.66;102032.70;107017;1264;22619;-49
2023/05/07 09:55:23;;;;;;;2.20;1.90;;;;;;;18.57;42.40;102036.09;107061;1273;22523;-48
2023/05/07 09:57:52;;;;;;;2.70;2.10;;;;;;;18.63;42.21;102037.80;106968;1270;25414;-47
2023/05/07 10:00:21;;;;;;;1.70;1.60;;;;;;;18.68;41.54;102033.24;106331;1271;1002502;-47
2023/05/07 10:02:49;;;;;;;2.70;1.90;;;;;;;18.74;41.45;102034.11;107002;1270;25574;-47
2023/05/07 10:05:18;;;;;;;4.60;2.00;;;;;;;18.77;41.40;102030.98;107355;1267;25391;-47
2023/05/07 10:07:46;;;;;;;3.90;1.80;;;;;;;18.78;41.62;102031.49;107170;1274;22527;-47
2023/05/07 10:10:15;;;;;;;2.80;2.30;;;;;;;18.85;41.53;102034.58;107096;1271;25343;-47
2023/05/07 10:12:43;;;;;;;3.20;1.70;;;;;;;18.88;41.64;102035.16;106948;1267;22534;-47
2023/05/07 10:15:14;;;;;;;;;;;;;;;18.93;41.16;102031.97;107048;1267;23254;-47
2023/05/07 10:17:44;;;;;;;5.40;2.30;;;;;;;18.95;41.20;102032.79;106922;1267;24011;-49
2023/05/07 10:20:12;;;;;;;4.10;1.90;;;;;;;18.99;41.25;102029.14;106778;1267;25362;-47
2023/05/07 10:22:43;;;;;;;3.60;2.10;;;;;;;19.06;41.54;102027.99;106900;1270;22537;-48
2023/05/07 10:25:18;;;;;;;2.20;1.70;;;;;;;19.16;41.52;102029.05;106831;1273;25462;-47
2023/05/07 10:27:47;;;;;;;4.10;1.60;;;;;;;19.27;41.14;102025.98;107147;1266;24631;-48
2023/05/07 10:30:38;;;;;;;4.60;2.00;;;;;;;19.37;41.20;102027.73;107143;1266;22523;-48
2023/05/07 10:33:07;;;;;;;3.10;2.30;;;;;;;19.47;40.51;102024.52;107092;1266;25377;-48
2023/05/07 10:35:40;;;;;;;3.40;1.90;;;;;;;19.49;40.09;102027.09;107095;1274;25328;-48
2023/05/07 10:38:08;;;;;;;3.00;1.90;;;;;;;19.51;40.68;102024.73;106783;1269;22603;-48
2023/05/07 10:40:37;;;;;;;2.00;1.70;;;;;;;19.58;40.83;102019.38;106922;1261;22989;-48
2023/05/07 10:43:06;;;;;;;1.90;1.60;;;;;;;19.63;39.75;102018.45;107074;1260;23314;-47
2023/05/07 10:45:41;;;;;;;3.10;1.50;;;;;;;19.64;39.04;102012.44;106843;1266;24202;-51
2023/05/07 10:48:16;;;;;;;1.60;1.40;;;;;;;19.61;39.17;102014.14;106709;1270;23883;-51
2023/05/07 10:51:18;;;;;;;3.60;2.10;;;;;;;19.62;39.72;102013.73;106981;1267;25341;-50
2023/05/07 10:53:45;;;;;;;4.50;1.90;;;;;;;19.69;39.87;102016.98;106810;1272;25353;-49
2023/05/07 10:56:17;;;;;;;3.00;1.60;;;;;;;19.72;39.74;102014.41;107180;1263;25383;-50
2023/05/07 10:58:49;;;;;;;1.50;1.40;;;;;;;19.77;39.39;102012.46;106999;1274;25392;-51
2023/05/07 11:01:58;;;;;;;4.30;1.90;;;;;;;19.83;39.23;102011.33;107264;1266;25365;-51
2023/05/07 11:05:23;;;;;;;2.40;1.60;;;;;;;19.83;39.38;102011.67;106943;1272;25318;-50
2023/05/07 11:08:12;;;;;;;2.70;1.60;;;;;;;19.81;39.40;102007.70;106639;1279;22791;-50
2023/05/07 11:10:58;;;;;;;1.70;1.50;;;;;;;19.79;39.11;102006.02;106783;1267;23238;-51
2023/05/07 11:13:46;;;;;;;1.70;1.40;;;;;;;19.74;39.07;102005.86;106506;1271;25481;-50
2023/05/07 11:16:42;;;;;;;4.20;1.80;;;;;;;19.73;38.94;102004.67;106651;1266;25281;-49
2023/05/07 11:19:48;;;;;;;3.30;1.60;;;;;;;19.67;39.09;102002.46;106770;1273;25513;-50
2023/05/07 11:22:46;;;;;;;6.00;1.80;;;;;;;19.63;39.40;102000.66;106614;1267;25347;-50
2023/05/07 11:25:33;;;;;;;12.70;3.10;;;;;;;19.67;39.32;101997.38;105810;1283;25403;-51
2023/05/07 11:28:31;;;;;;;2.80;1.80;;;;;;;19.73;39.71;101990.42;105527;1280;25484;-49
2023/05/07 11:31:02;;;;;;;2.70;1.60;;;;;;;19.84;39.97;101991.88;105836;1283;22736;-49